sensor_id;sensor_type;location;lat;lon;timestamp;P1;durP1;ratioP1;P2;durP2;ratioP2
63818;SDS011;49970;54.976;73.248;2022-12-20T00:01:24;17.20;;;6.70;;
63818;SDS011;49970;54.976;73.248;2022-12-20T00:04:05;18.77;;;7.15;;
63818;SDS011;49970;54.976;73.248;2022-12-20T00:06:35;23.88;;;6.55;;
63818;SDS011;49970;54.976;73.248;2022-12-20T00:09:02;20.02;;;6.15;;
63818;SDS011;49970;54.976;73.248;2022-12-20T00:11:30;14.73;;;6.78;;
63818;SDS011;49970;54.976;73.248;2022-12-20T00:13:57;15.80;;;7.72;;
63818;SDS011;49970;54.976;73.248;2022-12-20T00:16:24;14.65;;;6.50;;
63818;SDS011;49970;54.976;73.248;2022-12-20T00:18:57;13.02;;;6.43;;
63818;SDS011;49970;54.976;73.248;2022-12-20T00:21:26;19.98;;;6.70;;
63818;SDS011;49970;54.976;73.248;2022-12-20T00:23:54;20.20;;;7.45;;
63818;SDS011;49970;54.976;73.248;2022-12-20T00:26:21;21.00;;;7.53;;
63818;SDS011;49970;54.976;73.248;2022-12-20T00:28:49;23.05;;;8.32;;
63818;SDS011;49970;54.976;73.248;2022-12-20T00:31:18;17.13;;;8.25;;
63818;SDS011;49970;54.976;73.248;2022-12-20T00:33:46;23.42;;;7.75;;
63818;SDS011;49970;54.976;73.248;2022-12-20T00:36:14;23.25;;;7.68;;
63818;SDS011;49970;54.976;73.248;2022-12-20T00:38:43;13.50;;;7.13;;
63818;SDS011;49970;54.976;73.248;2022-12-20T00:41:19;22.77;;;8.10;;
63818;SDS011;49970;54.976;73.248;2022-12-20T00:43:47;25.10;;;6.95;;
63818;SDS011;49970;54.976;73.248;2022-12-20T00:46:19;26.60;;;7.60;;
63818;SDS011;49970;54.976;73.248;2022-12-20T00:48:47;14.07;;;6.70;;
63818;SDS011;49970;54.976;73.248;2022-12-20T00:51:19;18.17;;;7.47;;
63818;SDS011;49970;54.976;73.248;2022-12-20T00:53:56;19.35;;;7.43;;
63818;SDS011;49970;54.976;73.248;2022-12-20T00:56:23;23.25;;;7.38;;
63818;SDS011;49970;54.976;73.248;2022-12-20T00:58:49;15.70;;;7.40;;
63818;SDS011;49970;54.976;73.248;2022-12-20T01:01:26;16.60;;;8.10;;
63818;SDS011;49970;54.976;73.248;2022-12-20T01:03:55;14.73;;;7.07;;
63818;SDS011;49970;54.976;73.248;2022-12-20T01:06:23;16.60;;;8.20;;
63818;SDS011;49970;54.976;73.248;2022-12-20T01:08:59;16.25;;;7.90;;
63818;SDS011;49970;54.976;73.248;2022-12-20T01:11:38;32.88;;;8.10;;
63818;SDS011;49970;54.976;73.248;2022-12-20T01:14:09;26.27;;;8.27;;
63818;SDS011;49970;54.976;73.248;2022-12-20T01:16:42;24.63;;;8.48;;
63818;SDS011;49970;54.976;73.248;2022-12-20T01:19:11;22.85;;;7.88;;
63818;SDS011;49970;54.976;73.248;2022-12-20T01:21:38;19.73;;;6.68;;
63818;SDS011;49970;54.976;73.248;2022-12-20T01:24:10;22.17;;;7.70;;
63818;SDS011;49970;54.976;73.248;2022-12-20T01:26:37;21.73;;;7.10;;
63818;SDS011;49970;54.976;73.248;2022-12-20T01:29:03;15.45;;;8.60;;
63818;SDS011;49970;54.976;73.248;2022-12-20T01:31:30;26.00;;;9.88;;
63818;SDS011;49970;54.976;73.248;2022-12-20T01:33:56;26.95;;;9.18;;
63818;SDS011;49970;54.976;73.248;2022-12-20T01:36:28;19.23;;;10.15;;
63818;SDS011;49970;54.976;73.248;2022-12-20T01:38:57;32.00;;;11.02;;
63818;SDS011;49970;54.976;73.248;2022-12-20T01:41:30;25.35;;;12.35;;
63818;SDS011;49970;54.976;73.248;2022-12-20T01:46:44;36.83;;;11.13;;
63818;SDS011;49970;54.976;73.248;2022-12-20T01:49:18;31.98;;;10.38;;
63818;SDS011;49970;54.976;73.248;2022-12-20T01:51:54;35.40;;;10.60;;
63818;SDS011;49970;54.976;73.248;2022-12-20T01:56:57;31.33;;;10.40;;
63818;SDS011;49970;54.976;73.248;2022-12-20T01:59:27;28.02;;;10.70;;
63818;SDS011;49970;54.976;73.248;2022-12-20T02:01:56;28.45;;;12.43;;
63818;SDS011;49970;54.976;73.248;2022-12-20T02:04:25;27.40;;;11.80;;
63818;SDS011;49970;54.976;73.248;2022-12-20T02:06:52;36.53;;;12.75;;
63818;SDS011;49970;54.976;73.248;2022-12-20T02:09:18;25.05;;;11.35;;
63818;SDS011;49970;54.976;73.248;2022-12-20T02:31:38;23.50;;;10.10;;
63818;SDS011;49970;54.976;73.248;2022-12-20T02:34:08;19.65;;;10.15;;
63818;SDS011;49970;54.976;73.248;2022-12-20T02:36:47;27.58;;;10.77;;
63818;SDS011;49970;54.976;73.248;2022-12-20T02:39:15;20.02;;;9.32;;
63818;SDS011;49970;54.976;73.248;2022-12-20T02:41:42;22.27;;;9.82;;
63818;SDS011;49970;54.976;73.248;2022-12-20T02:44:15;28.77;;;9.63;;
63818;SDS011;49970;54.976;73.248;2022-12-20T02:47:04;26.17;;;10.52;;
63818;SDS011;49970;54.976;73.248;2022-12-20T02:49:35;32.45;;;10.70;;
63818;SDS011;49970;54.976;73.248;2022-12-20T02:52:08;21.13;;;9.60;;
63818;SDS011;49970;54.976;73.248;2022-12-20T02:54:47;25.02;;;9.43;;
63818;SDS011;49970;54.976;73.248;2022-12-20T02:57:25;42.85;;;10.45;;
63818;SDS011;49970;54.976;73.248;2022-12-20T03:00:05;26.42;;;9.52;;
63818;SDS011;49970;54.976;73.248;2022-12-20T03:02:46;25.25;;;9.43;;
63818;SDS011;49970;54.976;73.248;2022-12-20T03:05:43;19.45;;;9.05;;
63818;SDS011;49970;54.976;73.248;2022-12-20T03:08:12;28.75;;;8.95;;
63818;SDS011;49970;54.976;73.248;2022-12-20T03:10:42;14.77;;;7.40;;
63818;SDS011;49970;54.976;73.248;2022-12-20T03:13:09;18.65;;;7.78;;
63818;SDS011;49970;54.976;73.248;2022-12-20T03:15:42;19.63;;;7.97;;
63818;SDS011;49970;54.976;73.248;2022-12-20T03:18:08;11.18;;;6.32;;
63818;SDS011;49970;54.976;73.248;2022-12-20T03:20:35;17.38;;;6.88;;
63818;SDS011;49970;54.976;73.248;2022-12-20T03:23:01;38.35;;;7.20;;
63818;SDS011;49970;54.976;73.248;2022-12-20T03:25:28;20.20;;;6.93;;
63818;SDS011;49970;54.976;73.248;2022-12-20T03:27:56;19.02;;;5.88;;
63818;SDS011;49970;54.976;73.248;2022-12-20T03:30:24;18.55;;;6.70;;
63818;SDS011;49970;54.976;73.248;2022-12-20T03:33:01;19.95;;;6.45;;
63818;SDS011;49970;54.976;73.248;2022-12-20T03:35:31;14.18;;;6.82;;
63818;SDS011;49970;54.976;73.248;2022-12-20T03:37:57;18.52;;;6.72;;
63818;SDS011;49970;54.976;73.248;2022-12-20T03:40:24;24.55;;;7.55;;
63818;SDS011;49970;54.976;73.248;2022-12-20T03:43:01;28.45;;;6.53;;
63818;SDS011;49970;54.976;73.248;2022-12-20T03:45:27;29.30;;;6.60;;
63818;SDS011;49970;54.976;73.248;2022-12-20T03:47:58;25.40;;;6.55;;
63818;SDS011;49970;54.976;73.248;2022-12-20T03:50:27;15.52;;;7.22;;
63818;SDS011;49970;54.976;73.248;2022-12-20T03:52:59;25.15;;;5.65;;
63818;SDS011;49970;54.976;73.248;2022-12-20T03:55:25;12.77;;;5.80;;
63818;SDS011;49970;54.976;73.248;2022-12-20T03:57:52;18.00;;;6.75;;
63818;SDS011;49970;54.976;73.248;2022-12-20T04:00:26;37.20;;;7.25;;
63818;SDS011;49970;54.976;73.248;2022-12-20T04:03:02;20.45;;;5.68;;
63818;SDS011;49970;54.976;73.248;2022-12-20T04:05:30;25.15;;;6.00;;
63818;SDS011;49970;54.976;73.248;2022-12-20T04:07:56;26.63;;;6.53;;
63818;SDS011;49970;54.976;73.248;2022-12-20T04:10:23;10.77;;;5.65;;
63818;SDS011;49970;54.976;73.248;2022-12-20T04:12:59;28.10;;;5.72;;
63818;SDS011;49970;54.976;73.248;2022-12-20T04:15:35;25.05;;;5.97;;
63818;SDS011;49970;54.976;73.248;2022-12-20T04:18:01;14.57;;;6.03;;
63818;SDS011;49970;54.976;73.248;2022-12-20T04:20:28;18.52;;;6.13;;
63818;SDS011;49970;54.976;73.248;2022-12-20T04:23:08;15.98;;;6.40;;
63818;SDS011;49970;54.976;73.248;2022-12-20T04:25:35;14.30;;;5.63;;
63818;SDS011;49970;54.976;73.248;2022-12-20T04:28:02;25.52;;;5.53;;
63818;SDS011;49970;54.976;73.248;2022-12-20T04:30:28;33.70;;;5.95;;
63818;SDS011;49970;54.976;73.248;2022-12-20T04:32:55;26.98;;;5.72;;
63818;SDS011;49970;54.976;73.248;2022-12-20T04:35:22;22.85;;;4.80;;
63818;SDS011;49970;54.976;73.248;2022-12-20T04:37:48;42.63;;;5.57;;
63818;SDS011;49970;54.976;73.248;2022-12-20T04:40:15;23.77;;;6.43;;
63818;SDS011;49970;54.976;73.248;2022-12-20T04:42:52;15.00;;;5.63;;
63818;SDS011;49970;54.976;73.248;2022-12-20T04:45:23;16.58;;;6.30;;
63818;SDS011;49970;54.976;73.248;2022-12-20T04:47:51;14.00;;;5.43;;
63818;SDS011;49970;54.976;73.248;2022-12-20T04:50:24;24.75;;;5.13;;
63818;SDS011;49970;54.976;73.248;2022-12-20T04:52:50;13.95;;;5.35;;
63818;SDS011;49970;54.976;73.248;2022-12-20T04:55:52;28.15;;;7.45;;
63818;SDS011;49970;54.976;73.248;2022-12-20T04:58:18;13.35;;;5.55;;
63818;SDS011;49970;54.976;73.248;2022-12-20T05:00:47;18.58;;;6.25;;
63818;SDS011;49970;54.976;73.248;2022-12-20T05:03:22;23.52;;;6.07;;
63818;SDS011;49970;54.976;73.248;2022-12-20T05:05:49;18.98;;;5.80;;
63818;SDS011;49970;54.976;73.248;2022-12-20T05:08:16;24.15;;;6.78;;
63818;SDS011;49970;54.976;73.248;2022-12-20T05:10:54;30.55;;;6.38;;
63818;SDS011;49970;54.976;73.248;2022-12-20T05:13:20;15.85;;;7.57;;
63818;SDS011;49970;54.976;73.248;2022-12-20T05:15:51;22.88;;;6.45;;
63818;SDS011;49970;54.976;73.248;2022-12-20T05:18:23;22.40;;;7.80;;
63818;SDS011;49970;54.976;73.248;2022-12-20T05:21:01;26.95;;;7.05;;
63818;SDS011;49970;54.976;73.248;2022-12-20T05:23:54;16.73;;;7.75;;
63818;SDS011;49970;54.976;73.248;2022-12-20T05:27:08;19.48;;;7.72;;
63818;SDS011;49970;54.976;73.248;2022-12-20T05:29:35;20.98;;;6.97;;
63818;SDS011;49970;54.976;73.248;2022-12-20T05:32:01;19.05;;;7.35;;
63818;SDS011;49970;54.976;73.248;2022-12-20T05:34:27;24.50;;;7.65;;
63818;SDS011;49970;54.976;73.248;2022-12-20T05:36:54;22.45;;;7.63;;
63818;SDS011;49970;54.976;73.248;2022-12-20T05:39:34;21.45;;;8.75;;
63818;SDS011;49970;54.976;73.248;2022-12-20T05:42:07;24.73;;;7.95;;
63818;SDS011;49970;54.976;73.248;2022-12-20T05:44:33;25.23;;;7.25;;
63818;SDS011;49970;54.976;73.248;2022-12-20T05:46:59;26.02;;;7.18;;
63818;SDS011;49970;54.976;73.248;2022-12-20T05:49:35;20.00;;;7.28;;
63818;SDS011;49970;54.976;73.248;2022-12-20T05:52:03;17.83;;;6.05;;
63818;SDS011;49970;54.976;73.248;2022-12-20T05:54:30;16.92;;;5.93;;
63818;SDS011;49970;54.976;73.248;2022-12-20T05:57:17;12.25;;;6.15;;
63818;SDS011;49970;54.976;73.248;2022-12-20T05:59:45;19.42;;;5.82;;
63818;SDS011;49970;54.976;73.248;2022-12-20T06:02:21;13.35;;;6.00;;
63818;SDS011;49970;54.976;73.248;2022-12-20T06:04:53;18.25;;;7.40;;
63818;SDS011;49970;54.976;73.248;2022-12-20T06:07:22;26.15;;;6.55;;
63818;SDS011;49970;54.976;73.248;2022-12-20T06:10:05;16.15;;;6.05;;
63818;SDS011;49970;54.976;73.248;2022-12-20T06:12:44;11.75;;;6.68;;
63818;SDS011;49970;54.976;73.248;2022-12-20T06:15:10;20.10;;;7.07;;
63818;SDS011;49970;54.976;73.248;2022-12-20T06:17:38;15.70;;;6.13;;
63818;SDS011;49970;54.976;73.248;2022-12-20T06:20:15;16.95;;;6.82;;
63818;SDS011;49970;54.976;73.248;2022-12-20T06:22:50;22.65;;;6.50;;
63818;SDS011;49970;54.976;73.248;2022-12-20T06:25:18;23.92;;;6.78;;
63818;SDS011;49970;54.976;73.248;2022-12-20T06:27:45;22.80;;;6.93;;
63818;SDS011;49970;54.976;73.248;2022-12-20T06:30:15;24.85;;;7.85;;
63818;SDS011;49970;54.976;73.248;2022-12-20T06:32:54;14.70;;;6.45;;
63818;SDS011;49970;54.976;73.248;2022-12-20T06:35:21;22.38;;;6.95;;
63818;SDS011;49970;54.976;73.248;2022-12-20T06:37:47;23.13;;;7.43;;
63818;SDS011;49970;54.976;73.248;2022-12-20T06:40:14;16.67;;;7.55;;
63818;SDS011;49970;54.976;73.248;2022-12-20T06:42:40;24.02;;;7.43;;
63818;SDS011;49970;54.976;73.248;2022-12-20T06:45:07;23.85;;;6.80;;
63818;SDS011;49970;54.976;73.248;2022-12-20T06:47:39;20.95;;;7.18;;
63818;SDS011;49970;54.976;73.248;2022-12-20T06:50:06;24.70;;;6.65;;
63818;SDS011;49970;54.976;73.248;2022-12-20T06:52:33;23.55;;;10.52;;
63818;SDS011;49970;54.976;73.248;2022-12-20T06:54:59;27.55;;;9.00;;
63818;SDS011;49970;54.976;73.248;2022-12-20T06:57:25;22.58;;;8.40;;
63818;SDS011;49970;54.976;73.248;2022-12-20T06:59:53;22.23;;;9.52;;
63818;SDS011;49970;54.976;73.248;2022-12-20T07:02:19;19.73;;;7.00;;
63818;SDS011;49970;54.976;73.248;2022-12-20T07:04:45;24.35;;;8.43;;
63818;SDS011;49970;54.976;73.248;2022-12-20T07:07:12;18.75;;;7.25;;
63818;SDS011;49970;54.976;73.248;2022-12-20T07:09:38;17.42;;;6.93;;
63818;SDS011;49970;54.976;73.248;2022-12-20T07:12:06;16.48;;;7.35;;
63818;SDS011;49970;54.976;73.248;2022-12-20T07:14:33;18.05;;;8.45;;
63818;SDS011;49970;54.976;73.248;2022-12-20T07:17:09;28.65;;;8.57;;
63818;SDS011;49970;54.976;73.248;2022-12-20T07:19:36;22.65;;;7.13;;
63818;SDS011;49970;54.976;73.248;2022-12-20T07:22:02;18.17;;;7.28;;
63818;SDS011;49970;54.976;73.248;2022-12-20T07:24:34;21.92;;;7.85;;
63818;SDS011;49970;54.976;73.248;2022-12-20T07:27:00;22.67;;;8.85;;
63818;SDS011;49970;54.976;73.248;2022-12-20T07:29:27;21.05;;;8.10;;
63818;SDS011;49970;54.976;73.248;2022-12-20T07:32:00;18.42;;;7.60;;
63818;SDS011;49970;54.976;73.248;2022-12-20T07:34:26;18.40;;;6.88;;
63818;SDS011;49970;54.976;73.248;2022-12-20T07:36:52;17.58;;;7.72;;
63818;SDS011;49970;54.976;73.248;2022-12-20T07:39:18;23.33;;;8.02;;
63818;SDS011;49970;54.976;73.248;2022-12-20T07:41:53;18.38;;;7.75;;
63818;SDS011;49970;54.976;73.248;2022-12-20T07:44:21;14.82;;;7.65;;
63818;SDS011;49970;54.976;73.248;2022-12-20T07:46:48;15.10;;;7.25;;
63818;SDS011;49970;54.976;73.248;2022-12-20T07:49:14;27.75;;;7.35;;
63818;SDS011;49970;54.976;73.248;2022-12-20T07:51:49;17.92;;;8.05;;
63818;SDS011;49970;54.976;73.248;2022-12-20T07:54:29;20.42;;;8.13;;
63818;SDS011;49970;54.976;73.248;2022-12-20T07:57:00;11.30;;;6.68;;
63818;SDS011;49970;54.976;73.248;2022-12-20T07:59:41;19.75;;;7.25;;
63818;SDS011;49970;54.976;73.248;2022-12-20T08:02:13;21.05;;;7.05;;
63818;SDS011;49970;54.976;73.248;2022-12-20T08:04:45;14.20;;;7.43;;
63818;SDS011;49970;54.976;73.248;2022-12-20T08:07:12;20.73;;;7.47;;
63818;SDS011;49970;54.976;73.248;2022-12-20T08:09:40;30.38;;;8.00;;
63818;SDS011;49970;54.976;73.248;2022-12-20T08:12:09;15.88;;;7.18;;
63818;SDS011;49970;54.976;73.248;2022-12-20T08:14:40;16.45;;;8.27;;
63818;SDS011;49970;54.976;73.248;2022-12-20T08:17:06;18.17;;;7.55;;
63818;SDS011;49970;54.976;73.248;2022-12-20T08:19:33;14.20;;;8.48;;
63818;SDS011;49970;54.976;73.248;2022-12-20T08:22:08;22.52;;;8.35;;
63818;SDS011;49970;54.976;73.248;2022-12-20T08:24:45;17.60;;;8.10;;
63818;SDS011;49970;54.976;73.248;2022-12-20T08:27:11;25.48;;;7.85;;
63818;SDS011;49970;54.976;73.248;2022-12-20T08:29:37;22.48;;;8.50;;
63818;SDS011;49970;54.976;73.248;2022-12-20T08:32:04;20.67;;;7.75;;
63818;SDS011;49970;54.976;73.248;2022-12-20T08:34:40;16.58;;;8.43;;
63818;SDS011;49970;54.976;73.248;2022-12-20T08:37:12;21.88;;;8.77;;
63818;SDS011;49970;54.976;73.248;2022-12-20T08:39:40;14.98;;;8.20;;
63818;SDS011;49970;54.976;73.248;2022-12-20T08:42:06;20.23;;;8.05;;
63818;SDS011;49970;54.976;73.248;2022-12-20T08:44:33;24.63;;;8.30;;
63818;SDS011;49970;54.976;73.248;2022-12-20T08:46:59;25.45;;;7.57;;
63818;SDS011;49970;54.976;73.248;2022-12-20T08:49:25;19.70;;;8.85;;
63818;SDS011;49970;54.976;73.248;2022-12-20T08:51:51;15.00;;;8.63;;
63818;SDS011;49970;54.976;73.248;2022-12-20T08:54:27;18.67;;;8.45;;
63818;SDS011;49970;54.976;73.248;2022-12-20T08:56:53;19.15;;;8.43;;
63818;SDS011;49970;54.976;73.248;2022-12-20T08:59:19;24.65;;;9.85;;
63818;SDS011;49970;54.976;73.248;2022-12-20T09:01:48;22.98;;;8.38;;
63818;SDS011;49970;54.976;73.248;2022-12-20T09:04:15;17.65;;;7.75;;
63818;SDS011;49970;54.976;73.248;2022-12-20T09:06:51;22.70;;;8.27;;
63818;SDS011;49970;54.976;73.248;2022-12-20T09:09:17;12.85;;;8.13;;
63818;SDS011;49970;54.976;73.248;2022-12-20T09:11:43;22.65;;;9.27;;
63818;SDS011;49970;54.976;73.248;2022-12-20T09:14:14;18.92;;;8.10;;
63818;SDS011;49970;54.976;73.248;2022-12-20T09:16:41;26.38;;;8.32;;
63818;SDS011;49970;54.976;73.248;2022-12-20T09:19:09;17.15;;;8.63;;
63818;SDS011;49970;54.976;73.248;2022-12-20T09:21:37;27.92;;;9.10;;
63818;SDS011;49970;54.976;73.248;2022-12-20T09:24:04;26.27;;;9.75;;
63818;SDS011;49970;54.976;73.248;2022-12-20T09:26:31;18.70;;;9.65;;
63818;SDS011;49970;54.976;73.248;2022-12-20T09:28:59;25.98;;;9.57;;
63818;SDS011;49970;54.976;73.248;2022-12-20T09:31:29;21.75;;;8.75;;
63818;SDS011;49970;54.976;73.248;2022-12-20T09:33:56;21.25;;;9.35;;
63818;SDS011;49970;54.976;73.248;2022-12-20T09:36:24;24.17;;;9.80;;
63818;SDS011;49970;54.976;73.248;2022-12-20T09:38:53;24.55;;;10.07;;
63818;SDS011;49970;54.976;73.248;2022-12-20T09:41:31;19.27;;;8.23;;
63818;SDS011;49970;54.976;73.248;2022-12-20T09:44:10;16.52;;;8.13;;
63818;SDS011;49970;54.976;73.248;2022-12-20T09:49:50;25.35;;;8.60;;
63818;SDS011;49970;54.976;73.248;2022-12-20T09:55:16;26.13;;;10.23;;
63818;SDS011;49970;54.976;73.248;2022-12-20T09:58:03;21.52;;;9.27;;
63818;SDS011;49970;54.976;73.248;2022-12-20T10:01:22;17.75;;;9.35;;
63818;SDS011;49970;54.976;73.248;2022-12-20T10:03:50;29.85;;;8.43;;
63818;SDS011;49970;54.976;73.248;2022-12-20T10:06:24;26.08;;;9.05;;
63818;SDS011;49970;54.976;73.248;2022-12-20T10:09:03;18.33;;;8.55;;
63818;SDS011;49970;54.976;73.248;2022-12-20T10:12:26;19.98;;;9.50;;
63818;SDS011;49970;54.976;73.248;2022-12-20T10:17:39;19.92;;;9.55;;
63818;SDS011;49970;54.976;73.248;2022-12-20T10:22:57;22.05;;;10.05;;
63818;SDS011;49970;54.976;73.248;2022-12-20T10:25:30;19.38;;;8.23;;
63818;SDS011;49970;54.976;73.248;2022-12-20T10:28:11;22.15;;;9.13;;
63818;SDS011;49970;54.976;73.248;2022-12-20T10:30:41;19.38;;;8.23;;
63818;SDS011;49970;54.976;73.248;2022-12-20T10:33:26;18.80;;;9.05;;
63818;SDS011;49970;54.976;73.248;2022-12-20T10:35:53;30.55;;;11.32;;
63818;SDS011;49970;54.976;73.248;2022-12-20T10:38:19;24.50;;;9.48;;
63818;SDS011;49970;54.976;73.248;2022-12-20T10:40:55;23.33;;;9.50;;
63818;SDS011;49970;54.976;73.248;2022-12-20T10:43:24;21.33;;;9.23;;
63818;SDS011;49970;54.976;73.248;2022-12-20T10:45:56;26.42;;;10.82;;
63818;SDS011;49970;54.976;73.248;2022-12-20T10:48:31;21.13;;;9.60;;
63818;SDS011;49970;54.976;73.248;2022-12-20T10:53:25;28.38;;;9.77;;
63818;SDS011;49970;54.976;73.248;2022-12-20T10:55:53;30.08;;;9.40;;
63818;SDS011;49970;54.976;73.248;2022-12-20T10:58:34;20.33;;;9.35;;
63818;SDS011;49970;54.976;73.248;2022-12-20T11:01:07;26.52;;;10.68;;
63818;SDS011;49970;54.976;73.248;2022-12-20T11:04:02;21.20;;;10.00;;
63818;SDS011;49970;54.976;73.248;2022-12-20T11:14:46;18.13;;;8.50;;
63818;SDS011;49970;54.976;73.248;2022-12-20T11:17:27;14.27;;;8.73;;
63818;SDS011;49970;54.976;73.248;2022-12-20T11:22:59;25.95;;;9.52;;
63818;SDS011;49970;54.976;73.248;2022-12-20T11:25:38;27.17;;;9.30;;
63818;SDS011;49970;54.976;73.248;2022-12-20T11:28:33;22.85;;;9.75;;
63818;SDS011;49970;54.976;73.248;2022-12-20T11:39:46;32.67;;;12.93;;
63818;SDS011;49970;54.976;73.248;2022-12-20T11:42:21;24.50;;;13.70;;
63818;SDS011;49970;54.976;73.248;2022-12-20T11:53:59;26.50;;;10.77;;
63818;SDS011;49970;54.976;73.248;2022-12-20T11:56:36;34.13;;;12.52;;
63818;SDS011;49970;54.976;73.248;2022-12-20T11:59:21;32.20;;;14.30;;
63818;SDS011;49970;54.976;73.248;2022-12-20T12:02:03;31.27;;;12.82;;
63818;SDS011;49970;54.976;73.248;2022-12-20T12:04:59;24.10;;;12.27;;
63818;SDS011;49970;54.976;73.248;2022-12-20T12:07:33;23.92;;;11.50;;
63818;SDS011;49970;54.976;73.248;2022-12-20T12:12:43;30.63;;;13.82;;
63818;SDS011;49970;54.976;73.248;2022-12-20T12:23:12;27.50;;;13.27;;
63818;SDS011;49970;54.976;73.248;2022-12-20T12:26:03;22.27;;;13.70;;
63818;SDS011;49970;54.976;73.248;2022-12-20T12:28:35;26.98;;;12.80;;
63818;SDS011;49970;54.976;73.248;2022-12-20T12:31:13;37.28;;;14.43;;
63818;SDS011;49970;54.976;73.248;2022-12-20T12:33:49;26.25;;;12.38;;
63818;SDS011;49970;54.976;73.248;2022-12-20T12:39:42;28.77;;;12.13;;
63818;SDS011;49970;54.976;73.248;2022-12-20T12:42:28;28.58;;;10.98;;
63818;SDS011;49970;54.976;73.248;2022-12-20T12:45:30;28.65;;;12.65;;
63818;SDS011;49970;54.976;73.248;2022-12-20T12:48:15;20.75;;;11.18;;
63818;SDS011;49970;54.976;73.248;2022-12-20T12:50:53;35.78;;;11.48;;
63818;SDS011;49970;54.976;73.248;2022-12-20T13:01:48;29.48;;;10.85;;
63818;SDS011;49970;54.976;73.248;2022-12-20T13:11:54;24.95;;;12.30;;
63818;SDS011;49970;54.976;73.248;2022-12-20T13:22:14;21.80;;;10.98;;
63818;SDS011;49970;54.976;73.248;2022-12-20T13:24:55;29.35;;;12.20;;
63818;SDS011;49970;54.976;73.248;2022-12-20T13:32:57;23.90;;;10.95;;
63818;SDS011;49970;54.976;73.248;2022-12-20T13:35:28;23.63;;;11.15;;
63818;SDS011;49970;54.976;73.248;2022-12-20T13:39:50;24.60;;;12.00;;
63818;SDS011;49970;54.976;73.248;2022-12-20T13:44:55;23.95;;;11.55;;
63818;SDS011;49970;54.976;73.248;2022-12-20T13:47:27;20.75;;;10.10;;
63818;SDS011;49970;54.976;73.248;2022-12-20T13:49:58;26.63;;;12.20;;
63818;SDS011;49970;54.976;73.248;2022-12-20T13:52:28;33.45;;;10.80;;
63818;SDS011;49970;54.976;73.248;2022-12-20T13:54:57;26.80;;;11.57;;
63818;SDS011;49970;54.976;73.248;2022-12-20T13:57:30;22.40;;;10.55;;
63818;SDS011;49970;54.976;73.248;2022-12-20T14:00:04;25.02;;;11.45;;
63818;SDS011;49970;54.976;73.248;2022-12-20T14:02:49;21.08;;;10.98;;
63818;SDS011;49970;54.976;73.248;2022-12-20T14:05:21;26.40;;;12.57;;
63818;SDS011;49970;54.976;73.248;2022-12-20T14:08:04;29.08;;;12.82;;
63818;SDS011;49970;54.976;73.248;2022-12-20T14:10:43;32.97;;;13.73;;
63818;SDS011;49970;54.976;73.248;2022-12-20T14:13:19;22.08;;;11.45;;
63818;SDS011;49970;54.976;73.248;2022-12-20T14:15:50;30.33;;;12.13;;
63818;SDS011;49970;54.976;73.248;2022-12-20T14:18:18;24.52;;;13.00;;
63818;SDS011;49970;54.976;73.248;2022-12-20T14:20:48;25.38;;;12.32;;
63818;SDS011;49970;54.976;73.248;2022-12-20T14:25:03;31.73;;;13.05;;
63818;SDS011;49970;54.976;73.248;2022-12-20T14:27:36;29.15;;;12.35;;
63818;SDS011;49970;54.976;73.248;2022-12-20T14:32:53;34.38;;;13.77;;
63818;SDS011;49970;54.976;73.248;2022-12-20T14:36:44;29.95;;;13.73;;
63818;SDS011;49970;54.976;73.248;2022-12-20T14:40:46;29.85;;;12.75;;
63818;SDS011;49970;54.976;73.248;2022-12-20T14:43:13;33.42;;;13.10;;
63818;SDS011;49970;54.976;73.248;2022-12-20T14:45:41;35.72;;;15.40;;
63818;SDS011;49970;54.976;73.248;2022-12-20T14:48:14;29.90;;;14.38;;
63818;SDS011;49970;54.976;73.248;2022-12-20T14:50:50;37.45;;;15.77;;
63818;SDS011;49970;54.976;73.248;2022-12-20T14:53:19;31.83;;;15.60;;
63818;SDS011;49970;54.976;73.248;2022-12-20T14:55:49;36.63;;;14.07;;
63818;SDS011;49970;54.976;73.248;2022-12-20T15:03:31;31.38;;;15.85;;
63818;SDS011;49970;54.976;73.248;2022-12-20T15:05:58;35.88;;;17.08;;
63818;SDS011;49970;54.976;73.248;2022-12-20T15:08:29;37.65;;;16.90;;
63818;SDS011;49970;54.976;73.248;2022-12-20T15:11:10;38.55;;;17.23;;
63818;SDS011;49970;54.976;73.248;2022-12-20T15:18:37;30.10;;;12.60;;
63818;SDS011;49970;54.976;73.248;2022-12-20T15:21:05;27.85;;;13.55;;
63818;SDS011;49970;54.976;73.248;2022-12-20T15:26:18;31.00;;;11.55;;
63818;SDS011;49970;54.976;73.248;2022-12-20T15:28:46;31.58;;;11.50;;
63818;SDS011;49970;54.976;73.248;2022-12-20T15:31:14;21.15;;;11.68;;
63818;SDS011;49970;54.976;73.248;2022-12-20T15:33:43;24.08;;;12.13;;
63818;SDS011;49970;54.976;73.248;2022-12-20T15:36:20;16.23;;;10.63;;
63818;SDS011;49970;54.976;73.248;2022-12-20T15:38:48;13.32;;;9.23;;
63818;SDS011;49970;54.976;73.248;2022-12-20T15:41:26;17.48;;;9.57;;
63818;SDS011;49970;54.976;73.248;2022-12-20T15:44:05;7.30;;;6.18;;
63818;SDS011;49970;54.976;73.248;2022-12-20T15:46:36;9.77;;;7.80;;
63818;SDS011;49970;54.976;73.248;2022-12-20T15:49:02;13.25;;;7.53;;
63818;SDS011;49970;54.976;73.248;2022-12-20T15:51:30;9.52;;;7.18;;
63818;SDS011;49970;54.976;73.248;2022-12-20T15:54:03;10.50;;;7.55;;
63818;SDS011;49970;54.976;73.248;2022-12-20T15:56:40;7.95;;;6.25;;
63818;SDS011;49970;54.976;73.248;2022-12-20T15:59:06;10.65;;;6.57;;
63818;SDS011;49970;54.976;73.248;2022-12-20T16:01:34;10.88;;;7.75;;
63818;SDS011;49970;54.976;73.248;2022-12-20T16:05:11;7.47;;;5.55;;
63818;SDS011;49970;54.976;73.248;2022-12-20T16:07:38;6.63;;;5.97;;
63818;SDS011;49970;54.976;73.248;2022-12-20T16:10:05;10.98;;;6.70;;
63818;SDS011;49970;54.976;73.248;2022-12-20T16:12:36;12.52;;;6.68;;
63818;SDS011;49970;54.976;73.248;2022-12-20T16:15:03;9.20;;;6.70;;
63818;SDS011;49970;54.976;73.248;2022-12-20T16:17:29;10.88;;;7.80;;
63818;SDS011;49970;54.976;73.248;2022-12-20T16:19:56;9.57;;;7.00;;
63818;SDS011;49970;54.976;73.248;2022-12-20T16:22:22;9.70;;;7.75;;
63818;SDS011;49970;54.976;73.248;2022-12-20T16:24:49;8.95;;;6.60;;
63818;SDS011;49970;54.976;73.248;2022-12-20T16:27:16;13.25;;;8.65;;
63818;SDS011;49970;54.976;73.248;2022-12-20T16:29:42;9.93;;;7.32;;
63818;SDS011;49970;54.976;73.248;2022-12-20T16:32:19;6.72;;;5.93;;
63818;SDS011;49970;54.976;73.248;2022-12-20T16:34:49;9.07;;;6.28;;
63818;SDS011;49970;54.976;73.248;2022-12-20T16:37:16;6.50;;;5.85;;
63818;SDS011;49970;54.976;73.248;2022-12-20T16:39:43;9.02;;;7.15;;
63818;SDS011;49970;54.976;73.248;2022-12-20T16:42:15;8.95;;;7.47;;
63818;SDS011;49970;54.976;73.248;2022-12-20T16:44:52;10.00;;;7.15;;
63818;SDS011;49970;54.976;73.248;2022-12-20T16:47:19;8.40;;;6.40;;
63818;SDS011;49970;54.976;73.248;2022-12-20T16:49:56;9.35;;;6.22;;
63818;SDS011;49970;54.976;73.248;2022-12-20T16:52:22;9.35;;;6.60;;
63818;SDS011;49970;54.976;73.248;2022-12-20T16:54:49;10.63;;;6.95;;
63818;SDS011;49970;54.976;73.248;2022-12-20T16:57:20;10.18;;;7.60;;
63818;SDS011;49970;54.976;73.248;2022-12-20T16:59:51;14.57;;;8.55;;
63818;SDS011;49970;54.976;73.248;2022-12-20T17:02:28;15.60;;;8.23;;